Time,TemperatureF,DewpointF,PressureIn,WindDirection,WindDirectionDegrees,WindSpeedMPH,WindSpeedGustMPH,Humidity,HourlyPrecipIn,Conditions,Clouds,dailyrainin,SoftwareType,DateUTC
2014-01-02 00:00:00,44.2,32.8,30.01,West,266,9.0,10.0,64,0.00,,,0.00,Wunderground v.1.15,2014-01-02 06:00:00,
2014-01-02 00:03:00,43.9,32.5,30.01,WSW,252,5.0,13.0,64,0.00,,---,0.00,VWS V14.01,2014-01-02 06:03:00,
2014-01-02 00:05:00,43.6,32.2,30.01,WSW,249,8.0,10.0,64,0.00,,,0.00,Wunderground v.1.15,2014-01-02 06:05:00,
2014-01-02 00:08:00,43.5,32.2,30.02,WSW,248,6.0,13.0,64,0.00,,---,0.00,VWS V14.01,2014-01-02 06:08:00,
2014-01-02 00:13:00,42.2,30.9,30.02,WSW,246,7.0,16.0,64,0.00,,---,0.00,VWS V14.01,2014-01-02 06:13:00,
2014-01-02 00:15:00,41.9,30.6,30.02,West,260,8.0,8.0,64,0.00,,,0.00,Wunderground v.1.15,2014-01-02 06:15:00,
2014-01-02 00:18:00,41.3,30.4,30.02,West,276,12.0,16.0,65,0.00,,---,0.00,VWS V14.01,2014-01-02 06:18:00,
2014-01-02 00:20:00,41.1,30.2,30.02,WNW,283,9.0,9.0,65,0.00,,,0.00,Wunderground v.1.15,2014-01-02 06:20:00,
2014-01-02 00:23:00,40.6,29.8,30.02,West,269,6.0,10.0,65,0.00,,---,0.00,VWS V14.01,2014-01-02 06:23:00,
2014-01-02 00:25:00,40.5,30.0,30.03,West,275,8.0,10.0,66,0.00,,,0.00,Wunderground v.1.15,2014-01-02 06:25:00,
2014-01-02 00:28:00,40.2,29.8,30.03,West,279,7.0,14.0,66,0.00,,---,0.00,VWS V14.01,2014-01-02 06:28:00,
2014-01-02 00:30:00,40.1,30.0,30.03,West,275,7.0,7.0,67,0.00,,,0.00,Wunderground v.1.15,2014-01-02 06:30:00,
2014-01-02 00:34:00,39.6,29.6,30.03,West,263,14.0,18.0,67,0.00,,---,0.00,VWS V14.01,2014-01-02 06:34:00,
2014-01-02 00:35:00,39.6,29.5,30.03,WNW,287,7.0,8.0,67,0.00,,,0.00,Wunderground v.1.15,2014-01-02 06:35:00,
2014-01-02 00:39:00,39.2,29.2,30.04,West,276,7.0,18.0,67,0.00,,---,0.00,VWS V14.01,2014-01-02 06:39:00,
2014-01-02 00:40:00,39.2,29.2,30.04,West,266,7.0,7.0,67,0.00,,,0.00,Wunderground v.1.15,2014-01-02 06:40:00,
2014-01-02 00:44:00,38.9,28.9,30.05,WSW,258,14.0,16.0,67,0.00,,---,0.00,VWS V14.01,2014-01-02 06:44:00,
2014-01-02 00:45:00,38.8,28.8,30.05,West,275,8.0,10.0,67,0.00,,,0.00,Wunderground v.1.15,2014-01-02 06:45:00,
2014-01-02 00:50:00,38.3,28.0,30.05,WSW,252,10.0,18.0,66,0.00,,---,0.00,VWS V14.01,2014-01-02 06:50:00,
2014-01-02 00:55:00,38.0,28.0,30.06,WNW,287,16.0,16.0,67,0.00,,---,0.00,VWS V14.01,2014-01-02 06:55:00,
2014-01-02 01:00:00,37.8,27.8,30.06,WNW,290,10.0,12.0,67,0.00,,---,0.00,VWS V14.01,2014-01-02 07:00:00,
2014-01-02 01:05:00,37.6,27.6,30.06,West,275,9.0,18.0,67,0.00,,,0.00,Wunderground v.1.15,2014-01-02 07:05:00,
2014-01-02 01:07:00,37.5,27.5,30.06,West,275,7.0,13.0,67,0.00,,---,0.00,VWS V14.01,2014-01-02 07:07:00,
2014-01-02 01:10:00,37.3,27.3,30.07,WNW,289,8.0,18.0,67,0.00,,,0.00,Wunderground v.1.15,2014-01-02 07:10:00,
2014-01-02 01:12:00,37.3,27.4,30.07,West,270,13.0,13.0,67,0.00,,---,0.00,VWS V14.01,2014-01-02 07:12:00,
2014-01-02 01:15:00,37.2,27.6,30.07,WNW,293,8.0,18.0,68,0.00,,,0.00,Wunderground v.1.15,2014-01-02 07:15:00,
2014-01-02 01:17:00,37.0,27.4,30.07,West,260,7.0,13.0,68,0.00,,---,0.00,VWS V14.01,2014-01-02 07:17:00,
2014-01-02 01:22:00,36.6,27.0,30.08,WNW,283,13.0,13.0,68,0.00,,---,0.00,VWS V14.01,2014-01-02 07:22:00,
2014-01-02 01:25:00,36.5,26.9,30.08,NW,317,9.0,18.0,68,0.00,,,0.00,Wunderground v.1.15,2014-01-02 07:25:00,
2014-01-02 01:27:00,36.3,26.8,30.09,WNW,300,7.0,13.0,68,0.00,,---,0.00,VWS V14.01,2014-01-02 07:27:00,
2014-01-02 01:30:00,36.0,26.5,30.09,West,263,8.0,18.0,68,0.00,,,0.00,Wunderground v.1.15,2014-01-02 07:30:00,
2014-01-02 01:32:00,36.0,26.5,30.09,West,280,7.0,12.0,68,0.00,,---,0.00,VWS V14.01,2014-01-02 07:32:00,
2014-01-02 01:37:00,35.8,26.3,30.10,NNW,328,11.0,17.0,68,0.00,,---,0.00,VWS V14.01,2014-01-02 07:37:00,
2014-01-02 01:40:00,35.3,25.8,30.10,NW,314,9.0,9.0,68,0.00,,,0.00,Wunderground v.1.15,2014-01-02 07:40:00,
2014-01-02 01:42:00,35.2,25.4,30.10,WSW,249,10.0,17.0,67,0.00,,---,0.00,VWS V14.01,2014-01-02 07:42:00,
2014-01-02 01:45:00,34.9,25.0,30.10,NNW,330,10.0,10.0,67,0.00,,,0.00,Wunderground v.1.15,2014-01-02 07:45:00,
2014-01-02 01:48:00,34.6,24.8,30.10,West,273,7.0,17.0,67,0.00,,---,0.00,VWS V14.01,2014-01-02 07:48:00,
2014-01-02 01:53:00,34.3,24.5,30.11,West,263,10.0,13.0,67,0.00,,---,0.00,VWS V14.01,2014-01-02 07:53:00,
2014-01-02 01:55:00,34.0,24.2,30.11,West,269,8.0,18.0,67,0.00,,,0.00,Wunderground v.1.15,2014-01-02 07:55:00,
2014-01-02 01:58:00,33.8,24.4,30.11,West,260,10.0,13.0,68,0.00,,---,0.00,VWS V14.01,2014-01-02 07:58:00,
2014-01-02 02:03:00,33.4,24.0,30.11,West,270,6.0,19.0,68,0.00,,---,0.00,VWS V14.01,2014-01-02 08:03:00,
2014-01-02 02:05:00,33.2,23.4,30.12,WNW,283,10.0,12.0,67,0.00,,,0.00,Wunderground v.1.15,2014-01-02 08:05:00,
2014-01-02 02:08:00,33.1,23.4,30.12,NW,317,7.0,19.0,67,0.00,,---,0.00,VWS V14.01,2014-01-02 08:08:00,
2014-01-02 02:10:00,32.9,23.5,30.12,West,277,9.0,9.0,68,0.00,,,0.00,Wunderground v.1.15,2014-01-02 08:10:00,
2014-01-02 02:13:00,32.8,23.4,30.12,West,277,10.0,11.0,68,0.00,,---,0.00,VWS V14.01,2014-01-02 08:13:00,
2014-01-02 02:15:00,32.8,23.4,30.13,WNW,290,8.0,18.0,68,0.00,,,0.00,Wunderground v.1.15,2014-01-02 08:15:00,
2014-01-02 02:18:00,32.5,23.1,30.13,West,266,13.0,16.0,68,0.00,,---,0.00,VWS V14.01,2014-01-02 08:18:00,
2014-01-02 02:23:00,32.4,23.0,30.14,WNW,286,7.0,17.0,68,0.00,,---,0.00,VWS V14.01,2014-01-02 08:23:00,
2014-01-02 02:25:00,32.4,23.0,30.14,SW,225,8.0,18.0,68,0.00,,,0.00,Wunderground v.1.15,2014-01-02 08:25:00,
2014-01-02 02:28:00,32.2,22.8,30.14,West,269,14.0,17.0,68,0.00,,---,0.00,VWS V14.01,2014-01-02 08:28:00,
2014-01-02 02:30:00,32.2,22.8,30.15,West,272,9.0,9.0,68,0.00,,,0.00,Wunderground v.1.15,2014-01-02 08:30:00,
2014-01-02 02:33:00,32.2,22.8,30.14,West,265,11.0,13.0,68,0.00,,---,0.00,VWS V14.01,2014-01-02 08:33:00,
2014-01-02 02:35:00,32.2,22.8,30.14,WNW,283,9.0,18.0,68,0.00,,,0.00,Wunderground v.1.15,2014-01-02 08:35:00,
2014-01-02 02:38:00,32.1,22.8,30.15,WNW,297,11.0,16.0,68,0.00,,---,0.00,VWS V14.01,2014-01-02 08:38:00,
2014-01-02 02:40:00,32.1,22.7,30.15,West,265,9.0,9.0,68,0.00,,,0.00,Wunderground v.1.15,2014-01-02 08:40:00,
2014-01-02 02:45:00,31.9,22.5,30.16,NW,313,2.0,19.0,68,0.00,,---,0.00,VWS V14.01,2014-01-02 08:45:00,
2014-01-02 02:50:00,31.8,22.4,30.16,WNW,293,9.0,18.0,68,0.00,,,0.00,Wunderground v.1.15,2014-01-02 08:50:00,
2014-01-02 02:55:00,31.6,22.2,30.16,West,273,9.0,18.0,68,0.00,,,0.00,Wunderground v.1.15,2014-01-02 08:55:00,
2014-01-02 03:00:00,31.5,22.1,30.16,NW,306,7.0,18.0,68,0.00,,,0.00,Wunderground v.1.15,2014-01-02 09:00:00,
2014-01-02 03:05:00,31.3,22.0,30.17,West,269,8.0,18.0,68,0.00,,,0.00,Wunderground v.1.15,2014-01-02 09:05:00,
2014-01-02 03:10:00,31.3,22.0,30.16,WNW,297,8.0,8.0,68,0.00,,,0.00,Wunderground v.1.15,2014-01-02 09:10:00,
2014-01-02 03:15:00,31.2,22.2,30.17,WNW,291,7.0,18.0,69,0.00,,,0.00,Wunderground v.1.15,2014-01-02 09:15:00,
2014-01-02 03:20:00,31.0,21.7,30.17,WNW,293,8.0,8.0,68,0.00,,,0.00,Wunderground v.1.15,2014-01-02 09:20:00,
2014-01-02 03:25:00,30.9,21.9,30.17,NW,315,8.0,10.0,69,0.00,,,0.00,Wunderground v.1.15,2014-01-02 09:25:00,
2014-01-02 03:26:00,30.7,21.8,30.17,WNW,286,7.0,11.0,69,0.00,,---,0.00,VWS V14.01,2014-01-02 09:26:00,
2014-01-02 03:30:00,30.6,21.6,30.17,WNW,294,6.0,18.0,69,0.00,,,0.00,Wunderground v.1.15,2014-01-02 09:30:00,
2014-01-02 03:31:00,30.6,21.6,30.17,WNW,282,7.0,11.0,69,0.00,,---,0.00,VWS V14.01,2014-01-02 09:31:00,
2014-01-02 03:35:00,30.3,21.7,30.18,West,270,6.0,18.0,70,0.00,,,0.00,Wunderground v.1.15,2014-01-02 09:35:00,
2014-01-02 03:36:00,30.1,21.5,30.18,West,275,6.0,12.0,70,0.00,,---,0.00,VWS V14.01,2014-01-02 09:36:00,
2014-01-02 03:40:00,29.8,21.2,30.18,West,265,6.0,18.0,70,0.00,,,0.00,Wunderground v.1.15,2014-01-02 09:40:00,
2014-01-02 03:41:00,29.8,21.2,30.18,West,266,6.0,8.0,70,0.00,,---,0.00,VWS V14.01,2014-01-02 09:41:00,
2014-01-02 03:45:00,29.7,21.1,30.18,WNW,282,6.0,18.0,70,0.00,,,0.00,Wunderground v.1.15,2014-01-02 09:45:00,
2014-01-02 03:46:00,29.7,21.1,30.18,NW,308,6.0,10.0,70,0.00,,---,0.00,VWS V14.01,2014-01-02 09:46:00,
2014-01-02 03:51:00,29.4,20.8,30.18,West,266,7.0,10.0,70,0.00,,---,0.00,VWS V14.01,2014-01-02 09:51:00,
2014-01-02 03:55:00,29.3,21.1,30.18,WNW,297,7.0,18.0,71,0.00,,,0.00,Wunderground v.1.15,2014-01-02 09:55:00,
2014-01-02 03:56:00,29.3,21.1,30.18,West,273,10.0,11.0,71,0.00,,---,0.00,VWS V14.01,2014-01-02 09:56:00,
2014-01-02 04:00:00,29.1,20.9,30.19,West,265,8.0,18.0,71,0.00,,,0.00,Wunderground v.1.15,2014-01-02 10:00:00,
2014-01-02 04:01:00,29.0,20.8,30.19,WNW,297,5.0,11.0,71,0.00,,---,0.00,VWS V14.01,2014-01-02 10:01:00,
2014-01-02 04:05:00,28.8,20.6,30.20,WNW,289,9.0,18.0,71,0.00,,,0.00,Wunderground v.1.15,2014-01-02 10:05:00,
2014-01-02 04:06:00,28.8,20.6,30.20,West,280,8.0,12.0,71,0.00,,---,0.00,VWS V14.01,2014-01-02 10:06:00,
2014-01-02 04:10:00,28.8,20.6,30.20,WNW,300,9.0,9.0,71,0.00,,,0.00,Wunderground v.1.15,2014-01-02 10:10:00,
2014-01-02 04:11:00,28.7,20.5,30.20,NW,318,7.0,11.0,71,0.00,,---,0.00,VWS V14.01,2014-01-02 10:11:00,
2014-01-02 04:15:00,28.7,20.5,30.21,WNW,297,8.0,18.0,71,0.00,,,0.00,Wunderground v.1.15,2014-01-02 10:15:00,
2014-01-02 04:17:00,28.7,20.5,30.20,West,269,11.0,14.0,71,0.00,,---,0.00,VWS V14.01,2014-01-02 10:17:00,
2014-01-02 04:20:00,28.5,20.3,30.21,West,265,7.0,18.0,71,0.00,,,0.00,Wunderground v.1.15,2014-01-02 10:20:00,
2014-01-02 04:22:00,28.4,20.2,30.21,West,275,3.0,11.0,71,0.00,,---,0.00,VWS V14.01,2014-01-02 10:22:00,
2014-01-02 04:25:00,28.4,20.5,30.21,West,272,6.0,18.0,72,0.00,,,0.00,Wunderground v.1.15,2014-01-02 10:25:00,
2014-01-02 04:27:00,28.2,20.0,30.21,West,263,11.0,17.0,71,0.00,,---,0.00,VWS V14.01,2014-01-02 10:27:00,
2014-01-02 04:30:00,28.1,19.9,30.21,NW,318,8.0,8.0,71,0.00,,,0.00,Wunderground v.1.15,2014-01-02 10:30:00,
2014-01-02 04:32:00,28.1,19.9,30.21,West,280,2.0,8.0,71,0.00,,---,0.00,VWS V14.01,2014-01-02 10:32:00,
2014-01-02 04:35:00,27.9,19.7,30.22,West,276,8.0,18.0,71,0.00,,,0.00,Wunderground v.1.15,2014-01-02 10:35:00,
2014-01-02 04:37:00,27.8,19.3,30.22,WSW,253,10.0,16.0,70,0.00,,---,0.00,VWS V14.01,2014-01-02 10:37:00,
2014-01-02 04:40:00,27.8,19.3,30.22,WNW,282,7.0,7.0,70,0.00,,,0.00,Wunderground v.1.15,2014-01-02 10:40:00,
2014-01-02 04:43:00,27.8,19.3,30.22,WSW,255,5.0,14.0,70,0.00,,---,0.00,VWS V14.01,2014-01-02 10:43:00,
2014-01-02 04:45:00,27.8,19.3,30.22,WSW,258,9.0,10.0,70,0.00,,,0.00,Wunderground v.1.15,2014-01-02 10:45:00,
2014-01-02 04:48:00,27.6,19.1,30.22,WNW,300,6.0,18.0,70,0.00,,---,0.00,VWS V14.01,2014-01-02 10:48:00,
2014-01-02 04:50:00,27.6,19.1,30.23,West,262,9.0,18.0,70,0.00,,,0.00,Wunderground v.1.15,2014-01-02 10:50:00,
2014-01-02 04:53:00,27.5,19.0,30.23,West,263,6.0,14.0,70,0.00,,---,0.00,VWS V14.01,2014-01-02 10:53:00,
2014-01-02 04:55:00,27.3,18.8,30.23,West,262,9.0,18.0,70,0.00,,,0.00,Wunderground v.1.15,2014-01-02 10:55:00,
2014-01-02 04:58:00,27.2,18.7,30.23,WNW,294,8.0,14.0,70,0.00,,---,0.00,VWS V14.01,2014-01-02 10:58:00,
2014-01-02 05:00:00,27.2,18.4,30.23,NW,306,8.0,8.0,69,0.00,,,0.00,Wunderground v.1.15,2014-01-02 11:00:00,
2014-01-02 05:04:00,27.0,18.2,30.23,West,273,3.0,10.0,69,0.00,,---,0.00,VWS V14.01,2014-01-02 11:04:00,
2014-01-02 05:05:00,27.0,18.2,30.23,West,269,7.0,7.0,69,0.00,,,0.00,Wunderground v.1.15,2014-01-02 11:05:00,
2014-01-02 05:09:00,26.9,18.1,30.23,WNW,284,13.0,14.0,69,0.00,,---,0.00,VWS V14.01,2014-01-02 11:09:00,
2014-01-02 05:10:00,26.9,18.1,30.23,WNW,284,8.0,18.0,69,0.00,,,0.00,Wunderground v.1.15,2014-01-02 11:10:00,
2014-01-02 05:14:00,26.7,17.6,30.24,WNW,301,8.0,19.0,68,0.00,,---,0.00,VWS V14.01,2014-01-02 11:14:00,
2014-01-02 05:15:00,26.7,17.6,30.24,West,265,10.0,18.0,68,0.00,,,0.00,Wunderground v.1.15,2014-01-02 11:15:00,
2014-01-02 05:20:00,26.6,17.8,30.24,West,279,19.0,19.0,69,0.00,,---,0.00,VWS V14.01,2014-01-02 11:20:00,
2014-01-02 05:25:00,26.4,17.6,30.25,NNW,348,5.0,19.0,69,0.00,,---,0.00,VWS V14.01,2014-01-02 11:25:00,
2014-01-02 05:30:00,26.3,17.5,30.25,WNW,291,7.0,19.0,69,0.00,,---,0.00,VWS V14.01,2014-01-02 11:30:00,
2014-01-02 05:35:00,26.1,17.6,30.25,West,263,9.0,18.0,70,0.00,,,0.00,Wunderground v.1.15,2014-01-02 11:35:00,
2014-01-02 05:40:00,26.0,17.2,30.25,WNW,299,8.0,8.0,69,0.00,,,0.00,Wunderground v.1.15,2014-01-02 11:40:00,
2014-01-02 05:45:00,25.8,17.4,30.25,WNW,286,7.0,18.0,70,0.00,,,0.00,Wunderground v.1.15,2014-01-02 11:45:00,
2014-01-02 05:50:00,25.8,17.4,30.26,NNW,345,6.0,18.0,70,0.00,,,0.00,Wunderground v.1.15,2014-01-02 11:50:00,
2014-01-02 05:55:00,25.7,17.3,30.26,West,273,8.0,18.0,70,0.00,,,0.00,Wunderground v.1.15,2014-01-02 11:55:00,
2014-01-02 06:00:00,25.7,17.6,30.26,WSW,256,8.0,8.0,71,0.00,,,0.00,Wunderground v.1.15,2014-01-02 12:00:00,
2014-01-02 06:05:00,25.6,17.5,30.27,West,269,8.0,8.0,71,0.00,,,0.00,Wunderground v.1.15,2014-01-02 12:05:00,
2014-01-02 06:10:00,25.3,17.2,30.27,NW,304,8.0,8.0,71,0.00,,,0.00,Wunderground v.1.15,2014-01-02 12:10:00,
2014-01-02 06:11:00,25.3,17.2,30.27,NW,306,5.0,10.0,71,0.00,,---,0.00,VWS V14.01,2014-01-02 12:11:00,
2014-01-02 06:15:00,25.1,17.0,30.27,West,273,7.0,8.0,71,0.00,,,0.00,Wunderground v.1.15,2014-01-02 12:15:00,
2014-01-02 06:16:00,25.1,17.0,30.27,WNW,303,6.0,13.0,71,0.00,,---,0.00,VWS V14.01,2014-01-02 12:16:00,
2014-01-02 06:20:00,25.0,16.9,30.28,NW,311,6.0,6.0,71,0.00,,,0.00,Wunderground v.1.15,2014-01-02 12:20:00,
2014-01-02 06:21:00,25.0,16.9,30.28,WSW,258,13.0,13.0,71,0.00,,---,0.00,VWS V14.01,2014-01-02 12:21:00,
2014-01-02 06:25:00,24.8,16.7,30.28,NW,311,6.0,6.0,71,0.00,,,0.00,Wunderground v.1.15,2014-01-02 12:25:00,
2014-01-02 06:26:00,24.8,16.8,30.28,West,272,6.0,16.0,71,0.00,,---,0.00,VWS V14.01,2014-01-02 12:26:00,
2014-01-02 06:30:00,24.7,16.6,30.28,WNW,286,8.0,8.0,71,0.00,,,0.00,Wunderground v.1.15,2014-01-02 12:30:00,
2014-01-02 06:31:00,24.7,16.6,30.28,WNW,301,6.0,12.0,71,0.00,,---,0.00,VWS V14.01,2014-01-02 12:31:00,
2014-01-02 06:35:00,24.5,16.4,30.29,West,276,9.0,10.0,71,0.00,,,0.00,Wunderground v.1.15,2014-01-02 12:35:00,
2014-01-02 06:36:00,24.5,16.5,30.29,West,279,7.0,17.0,71,0.00,,---,0.00,VWS V14.01,2014-01-02 12:36:00,
2014-01-02 06:40:00,24.4,16.3,30.29,West,277,8.0,10.0,71,0.00,,,0.00,Wunderground v.1.15,2014-01-02 12:40:00,
2014-01-02 06:42:00,24.4,16.4,30.29,West,280,2.0,13.0,71,0.00,,---,0.00,VWS V14.01,2014-01-02 12:42:00,
2014-01-02 06:47:00,24.2,16.2,30.29,WNW,286,3.0,13.0,71,0.00,,---,0.00,VWS V14.01,2014-01-02 12:47:00,
2014-01-02 06:50:00,24.1,16.1,30.30,WNW,282,7.0,7.0,71,0.00,,,0.00,Wunderground v.1.15,2014-01-02 12:50:00,
2014-01-02 06:52:00,24.1,16.1,30.30,West,267,7.0,7.0,71,0.00,,---,0.00,VWS V14.01,2014-01-02 12:52:00,
2014-01-02 06:55:00,24.1,16.1,30.30,WSW,249,6.0,7.0,71,0.00,,,0.00,Wunderground v.1.15,2014-01-02 12:55:00,
2014-01-02 06:57:00,24.1,16.1,30.30,West,262,8.0,11.0,71,0.00,,---,0.00,VWS V14.01,2014-01-02 12:57:00,
2014-01-02 07:00:00,23.9,15.9,30.31,WNW,283,7.0,7.0,71,0.00,,,0.00,Wunderground v.1.15,2014-01-02 13:00:00,
2014-01-02 07:02:00,23.9,15.9,30.31,West,277,8.0,10.0,71,0.00,,---,0.00,VWS V14.01,2014-01-02 13:02:00,
2014-01-02 07:05:00,23.9,15.9,30.32,West,265,7.0,8.0,71,0.00,,,0.00,Wunderground v.1.15,2014-01-02 13:05:00,
2014-01-02 07:07:00,23.9,15.9,30.32,West,260,17.0,17.0,71,0.00,,---,0.00,VWS V14.01,2014-01-02 13:07:00,
2014-01-02 07:10:00,23.8,15.8,30.32,West,272,8.0,18.0,71,0.00,,,0.00,Wunderground v.1.15,2014-01-02 13:10:00,
2014-01-02 07:12:00,23.8,15.8,30.32,West,270,7.0,10.0,71,0.00,,---,0.00,VWS V14.01,2014-01-02 13:12:00,
2014-01-02 07:15:00,23.8,16.1,30.31,WNW,284,7.0,18.0,72,0.00,,,0.00,Wunderground v.1.15,2014-01-02 13:15:00,
2014-01-02 07:17:00,23.6,15.9,30.31,West,269,2.0,10.0,72,0.00,,---,0.00,VWS V14.01,2014-01-02 13:17:00,
2014-01-02 07:20:00,23.6,15.9,30.32,WNW,301,5.0,5.0,72,0.00,,,0.00,Wunderground v.1.15,2014-01-02 13:20:00,
2014-01-02 07:23:00,23.5,15.8,30.32,West,270,7.0,12.0,72,0.00,,---,0.00,VWS V14.01,2014-01-02 13:23:00,
2014-01-02 07:28:00,23.5,15.8,30.32,WNW,289,10.0,12.0,72,0.00,,---,0.00,VWS V14.01,2014-01-02 13:28:00,
2014-01-02 07:30:00,23.5,15.8,30.32,West,275,6.0,18.0,72,0.00,,,0.00,Wunderground v.1.15,2014-01-02 13:30:00,
2014-01-02 07:33:00,23.3,15.6,30.33,WSW,258,10.0,14.0,72,0.00,,---,0.00,VWS V14.01,2014-01-02 13:33:00,
2014-01-02 07:35:00,23.3,15.6,30.33,West,279,8.0,18.0,72,0.00,,,0.00,Wunderground v.1.15,2014-01-02 13:35:00,
2014-01-02 07:38:00,23.3,15.6,30.33,West,275,8.0,14.0,72,0.00,,---,0.00,VWS V14.01,2014-01-02 13:38:00,
2014-01-02 07:40:00,23.3,15.6,30.33,West,265,8.0,18.0,72,0.00,,,0.00,Wunderground v.1.15,2014-01-02 13:40:00,
2014-01-02 07:43:00,23.3,15.6,30.33,West,280,3.0,14.0,72,0.00,,---,0.00,VWS V14.01,2014-01-02 13:43:00,
2014-01-02 07:45:00,23.3,15.6,30.33,West,270,7.0,18.0,72,0.00,,,0.00,Wunderground v.1.15,2014-01-02 13:45:00,
2014-01-02 07:49:00,23.3,15.9,30.34,WNW,299,6.0,14.0,73,0.00,,---,0.00,VWS V14.01,2014-01-02 13:49:00,
2014-01-02 07:54:00,23.3,15.6,30.34,West,270,5.0,13.0,72,0.00,,---,0.00,VWS V14.01,2014-01-02 13:54:00,
2014-01-02 07:55:00,23.3,15.9,30.34,NW,314,7.0,18.0,73,0.00,,,0.00,Wunderground v.1.15,2014-01-02 13:55:00,
2014-01-02 07:59:00,23.3,15.6,30.34,WNW,287,6.0,13.0,72,0.00,,---,0.00,VWS V14.01,2014-01-02 13:59:00,
2014-01-02 08:00:00,23.3,15.6,30.34,West,280,7.0,7.0,72,0.00,,,0.00,Wunderground v.1.15,2014-01-02 14:00:00,
2014-01-02 08:04:00,23.5,15.8,30.34,NW,306,5.0,13.0,72,0.00,,---,0.00,VWS V14.01,2014-01-02 14:04:00,
2014-01-02 08:05:00,23.5,15.8,30.34,WNW,300,6.0,18.0,72,0.00,,,0.00,Wunderground v.1.15,2014-01-02 14:05:00,
2014-01-02 08:09:00,23.5,15.8,30.35,WNW,282,2.0,13.0,72,0.00,,---,0.00,VWS V14.01,2014-01-02 14:09:00,
2014-01-02 08:10:00,23.6,15.9,30.35,West,260,6.0,6.0,72,0.00,,,0.00,Wunderground v.1.15,2014-01-02 14:10:00,
2014-01-02 08:14:00,23.6,15.9,30.35,West,266,5.0,13.0,72,0.00,,---,0.00,VWS V14.01,2014-01-02 14:14:00,
2014-01-02 08:15:00,23.6,15.9,30.35,West,267,6.0,10.0,72,0.00,,,0.00,Wunderground v.1.15,2014-01-02 14:15:00,
2014-01-02 08:19:00,23.8,15.8,30.35,NW,310,2.0,13.0,71,0.00,,---,0.00,VWS V14.01,2014-01-02 14:19:00,
2014-01-02 08:20:00,23.9,16.2,30.35,NW,307,6.0,18.0,72,0.00,,,0.00,Wunderground v.1.15,2014-01-02 14:20:00,
2014-01-02 08:25:00,24.1,16.1,30.35,West,270,6.0,18.0,71,0.00,,,0.00,Wunderground v.1.15,2014-01-02 14:25:00,
2014-01-02 08:30:00,24.1,16.1,30.35,WNW,297,6.0,6.0,71,0.00,,,0.00,Wunderground v.1.15,2014-01-02 14:30:00,
2014-01-02 08:35:00,24.4,16.3,30.35,West,275,5.0,18.0,71,0.00,,,0.00,Wunderground v.1.15,2014-01-02 14:35:00,
2014-01-02 08:36:00,24.4,16.0,30.35,WNW,290,6.0,11.0,70,0.00,,---,0.00,VWS V14.01,2014-01-02 14:36:00,
2014-01-02 08:40:00,24.5,16.1,30.35,West,279,6.0,18.0,70,0.00,,,0.00,Wunderground v.1.15,2014-01-02 14:40:00,
2014-01-02 08:41:00,24.5,16.1,30.36,West,279,8.0,11.0,70,0.00,,---,0.00,VWS V14.01,2014-01-02 14:41:00,
2014-01-02 08:45:00,24.7,16.0,30.35,West,273,7.0,18.0,69,0.00,,,0.00,Wunderground v.1.15,2014-01-02 14:45:00,
2014-01-02 08:46:00,24.7,16.0,30.35,NW,317,6.0,11.0,69,0.00,,---,0.00,VWS V14.01,2014-01-02 14:46:00,
2014-01-02 08:50:00,25.0,15.9,30.36,WNW,297,6.0,18.0,68,0.00,,,0.00,Wunderground v.1.15,2014-01-02 14:50:00,
2014-01-02 08:51:00,25.1,16.0,30.36,NW,321,3.0,8.0,68,0.00,,---,0.00,VWS V14.01,2014-01-02 14:51:00,
2014-01-02 08:56:00,25.3,16.2,30.35,West,272,0.0,11.0,68,0.00,,---,0.00,VWS V14.01,2014-01-02 14:56:00,
2014-01-02 09:00:00,25.7,16.6,30.35,NNW,335,5.0,18.0,68,0.00,,,0.00,Wunderground v.1.15,2014-01-02 15:00:00,
2014-01-02 09:02:00,25.7,16.6,30.35,North,352,2.0,11.0,68,0.00,,---,0.00,VWS V14.01,2014-01-02 15:02:00,
2014-01-02 09:05:00,26.0,16.2,30.36,WNW,282,4.0,18.0,66,0.00,,,0.00,Wunderground v.1.15,2014-01-02 15:05:00,
2014-01-02 09:07:00,26.1,16.0,30.36,West,275,6.0,11.0,65,0.00,,---,0.00,VWS V14.01,2014-01-02 15:07:00,
2014-01-02 09:10:00,26.3,16.1,30.36,West,269,4.0,18.0,65,0.00,,,0.00,Wunderground v.1.15,2014-01-02 15:10:00,
2014-01-02 09:12:00,26.4,16.2,30.36,WNW,299,3.0,6.0,65,0.00,,---,0.00,VWS V14.01,2014-01-02 15:12:00,
2014-01-02 09:15:00,26.4,16.2,30.36,West,270,5.0,18.0,65,0.00,,,0.00,Wunderground v.1.15,2014-01-02 15:15:00,
2014-01-02 09:17:00,26.6,15.7,30.37,WNW,297,7.0,14.0,63,0.00,,---,0.00,VWS V14.01,2014-01-02 15:17:00,
2014-01-02 09:20:00,26.7,15.8,30.37,West,269,6.0,18.0,63,0.00,,,0.00,Wunderground v.1.15,2014-01-02 15:20:00,
2014-01-02 09:22:00,26.9,16.0,30.37,NW,313,3.0,12.0,63,0.00,,---,0.00,VWS V14.01,2014-01-02 15:22:00,
2014-01-02 09:27:00,27.0,15.7,30.38,West,267,10.0,12.0,62,0.00,,---,0.00,VWS V14.01,2014-01-02 15:27:00,
2014-01-02 09:30:00,27.0,15.7,30.37,WNW,300,8.0,8.0,62,0.00,,,0.00,Wunderground v.1.15,2014-01-02 15:30:00,
2014-01-02 09:32:00,27.0,15.7,30.37,WNW,300,6.0,13.0,62,0.00,,---,0.00,VWS V14.01,2014-01-02 15:32:00,
2014-01-02 09:35:00,27.2,15.9,30.38,WNW,286,7.0,18.0,62,0.00,,,0.00,Wunderground v.1.15,2014-01-02 15:35:00,
2014-01-02 09:37:00,27.3,16.4,30.38,WNW,287,1.0,13.0,63,0.00,,---,0.00,VWS V14.01,2014-01-02 15:37:00,
2014-01-02 09:40:00,27.9,16.2,30.38,WNW,287,5.0,18.0,61,0.00,,,0.00,Wunderground v.1.15,2014-01-02 15:40:00,
2014-01-02 09:43:00,27.9,15.4,30.38,West,267,7.0,16.0,59,0.00,,---,0.00,VWS V14.01,2014-01-02 15:43:00,
2014-01-02 09:45:00,27.8,15.3,30.38,West,263,6.0,18.0,59,0.00,,,0.00,Wunderground v.1.15,2014-01-02 15:45:00,
2014-01-02 09:48:00,27.8,16.1,30.38,WNW,293,10.0,16.0,61,0.00,,---,0.00,VWS V14.01,2014-01-02 15:48:00,
2014-01-02 09:50:00,27.8,15.7,30.38,West,272,8.0,18.0,60,0.00,,,0.00,Wunderground v.1.15,2014-01-02 15:50:00,
2014-01-02 09:53:00,27.8,15.7,30.38,WNW,284,1.0,10.0,60,0.00,,---,0.00,VWS V14.01,2014-01-02 15:53:00,
2014-01-02 09:55:00,28.1,16.0,30.38,WNW,303,7.0,18.0,60,0.00,,,0.00,Wunderground v.1.15,2014-01-02 15:55:00,
2014-01-02 09:58:00,28.2,15.7,30.38,WSW,242,5.0,12.0,59,0.00,,---,0.00,VWS V14.01,2014-01-02 15:58:00,
2014-01-02 10:00:00,28.2,15.7,30.38,NNW,332,6.0,6.0,59,0.00,,,0.00,Wunderground v.1.15,2014-01-02 16:00:00,
2014-01-02 10:03:00,28.7,16.2,30.38,NNW,328,3.0,6.0,59,0.00,,---,0.00,VWS V14.01,2014-01-02 16:03:00,
2014-01-02 10:08:00,29.1,15.8,30.38,WNW,294,6.0,12.0,57,0.00,,---,0.00,VWS V14.01,2014-01-02 16:08:00,
2014-01-02 10:10:00,29.1,15.7,30.38,NNW,335,5.0,18.0,57,0.00,,,0.00,Wunderground v.1.15,2014-01-02 16:10:00,
2014-01-02 10:13:00,29.5,16.2,30.39,WSW,243,8.0,10.0,57,0.00,,---,0.00,VWS V14.01,2014-01-02 16:13:00,
2014-01-02 10:15:00,29.5,16.1,30.39,WNW,286,6.0,18.0,57,0.00,,,0.00,Wunderground v.1.15,2014-01-02 16:15:00,
2014-01-02 10:19:00,30.0,16.6,30.38,West,266,7.0,14.0,57,0.00,,---,0.00,VWS V14.01,2014-01-02 16:19:00,
2014-01-02 10:20:00,30.0,16.6,30.38,WNW,300,5.0,18.0,57,0.00,,,0.00,Wunderground v.1.15,2014-01-02 16:20:00,
2014-01-02 10:24:00,30.1,16.7,30.38,NNW,338,3.0,8.0,57,0.00,,---,0.00,VWS V14.01,2014-01-02 16:24:00,
2014-01-02 10:29:00,30.3,16.9,30.39,WNW,289,5.0,8.0,57,0.00,,---,0.00,VWS V14.01,2014-01-02 16:29:00,
2014-01-02 10:30:00,30.3,16.9,30.39,NNW,330,5.0,18.0,57,0.00,,,0.00,Wunderground v.1.15,2014-01-02 16:30:00,
2014-01-02 10:34:00,30.1,15.9,30.39,NW,315,2.0,14.0,55,0.00,,---,0.00,VWS V14.01,2014-01-02 16:34:00,
2014-01-02 10:35:00,30.1,15.9,30.39,NW,315,7.0,18.0,55,0.00,,,0.00,Wunderground v.1.15,2014-01-02 16:35:00,
2014-01-02 10:39:00,30.7,16.9,30.38,West,275,8.0,14.0,56,0.00,,---,0.00,VWS V14.01,2014-01-02 16:39:00,
2014-01-02 10:40:00,30.7,16.8,30.38,West,275,6.0,18.0,56,0.00,,,0.00,Wunderground v.1.15,2014-01-02 16:40:00,
2014-01-02 10:44:00,31.0,16.7,30.39,NW,313,2.0,8.0,55,0.00,,---,0.00,VWS V14.01,2014-01-02 16:44:00,
2014-01-02 10:45:00,31.2,16.9,30.39,WSW,256,5.0,18.0,55,0.00,,,0.00,Wunderground v.1.15,2014-01-02 16:45:00,
2014-01-02 10:49:00,31.3,17.0,30.39,West,280,2.0,11.0,55,0.00,,---,0.00,VWS V14.01,2014-01-02 16:49:00,
2014-01-02 10:50:00,31.3,17.0,30.39,West,280,5.0,5.0,55,0.00,,,0.00,Wunderground v.1.15,2014-01-02 16:50:00,
2014-01-02 10:55:00,31.9,17.2,30.38,WNW,299,2.0,8.0,54,0.00,,---,0.00,VWS V14.01,2014-01-02 16:55:00,
2014-01-02 11:00:00,32.5,16.4,30.38,WNW,287,2.0,10.0,51,0.00,,---,0.00,VWS V14.01,2014-01-02 17:00:00,
2014-01-02 11:05:00,32.7,17.0,30.38,NNW,327,10.0,10.0,52,0.00,,---,0.00,VWS V14.01,2014-01-02 17:05:00,
2014-01-02 11:10:00,32.8,17.6,30.38,NW,308,3.0,12.0,53,0.00,,---,0.00,VWS V14.01,2014-01-02 17:10:00,
2014-01-02 11:15:00,33.5,17.8,30.37,North,11,6.0,12.0,52,0.00,,---,0.00,VWS V14.01,2014-01-02 17:15:00,
2014-01-02 11:20:00,33.5,16.9,30.37,North,351,5.0,5.0,50,0.00,,---,0.00,VWS V14.01,2014-01-02 17:20:00,
2014-01-02 11:25:00,33.5,17.3,30.37,WSW,239,2.0,12.0,51,0.00,,---,0.00,VWS V14.01,2014-01-02 17:25:00,
2014-01-02 11:30:00,33.5,16.8,30.37,WNW,289,6.0,6.0,50,0.00,,,0.00,Wunderground v.1.15,2014-01-02 17:30:00,
2014-01-02 11:35:00,34.3,18.1,30.37,WNW,282,2.0,6.0,51,0.00,,---,0.00,VWS V14.01,2014-01-02 17:35:00,
2014-01-02 11:40:00,34.7,17.5,30.37,NW,317,4.0,4.0,49,0.00,,,0.00,Wunderground v.1.15,2014-01-02 17:40:00,
2014-01-02 11:45:00,34.6,16.9,30.37,West,270,8.0,12.0,48,0.00,,---,0.00,VWS V14.01,2014-01-02 17:45:00,
2014-01-02 11:50:00,34.6,16.9,30.36,NW,324,2.0,5.0,48,0.00,,---,0.00,VWS V14.01,2014-01-02 17:50:00,
2014-01-02 11:55:00,35.0,16.8,30.37,WNW,290,5.0,18.0,47,0.00,,,0.00,Wunderground v.1.15,2014-01-02 17:55:00,
2014-01-02 12:00:00,35.5,18.7,30.36,NW,310,5.0,5.0,50,0.00,,,0.00,Wunderground v.1.15,2014-01-02 18:00:00,
2014-01-02 12:05:00,36.0,17.7,30.36,NW,314,4.0,5.0,47,0.00,,,0.00,Wunderground v.1.15,2014-01-02 18:05:00,
2014-01-02 12:10:00,36.5,18.2,30.36,NW,306,3.0,3.0,47,0.00,,,0.00,Wunderground v.1.15,2014-01-02 18:10:00,
2014-01-02 12:11:00,36.5,18.2,30.36,NW,306,1.0,1.0,47,0.00,,---,0.00,VWS V14.01,2014-01-02 18:11:00,
2014-01-02 12:16:00,36.5,16.7,30.36,West,265,6.0,11.0,44,0.00,,---,0.00,VWS V14.01,2014-01-02 18:16:00,
2014-01-02 12:20:00,36.2,17.9,30.36,WSW,255,5.0,5.0,47,0.00,,,0.00,Wunderground v.1.15,2014-01-02 18:20:00,
2014-01-02 12:21:00,36.2,17.9,30.36,WNW,283,2.0,5.0,47,0.00,,---,0.00,VWS V14.01,2014-01-02 18:21:00,
2014-01-02 12:25:00,36.9,17.5,30.36,WNW,290,5.0,5.0,45,0.00,,,0.00,Wunderground v.1.15,2014-01-02 18:25:00,
2014-01-02 12:26:00,37.2,17.8,30.36,West,270,3.0,8.0,45,0.00,,---,0.00,VWS V14.01,2014-01-02 18:26:00,
2014-01-02 12:30:00,37.5,17.5,30.36,West,279,4.0,13.0,44,0.00,,,0.00,Wunderground v.1.15,2014-01-02 18:30:00,
2014-01-02 12:32:00,37.3,16.3,30.36,West,263,10.0,13.0,42,0.00,,---,0.00,VWS V14.01,2014-01-02 18:32:00,
2014-01-02 12:35:00,36.9,17.5,30.36,West,270,5.0,13.0,45,0.00,,,0.00,Wunderground v.1.15,2014-01-02 18:35:00,
2014-01-02 12:37:00,36.9,17.0,30.36,WSW,251,7.0,13.0,44,0.00,,---,0.00,VWS V14.01,2014-01-02 18:37:00,
2014-01-02 12:40:00,37.2,17.8,30.36,WNW,294,7.0,10.0,45,0.00,,,0.00,Wunderground v.1.15,2014-01-02 18:40:00,
2014-01-02 12:42:00,37.2,17.8,30.35,West,260,3.0,10.0,45,0.00,,---,0.00,VWS V14.01,2014-01-02 18:42:00,
2014-01-02 12:45:00,37.2,17.8,30.35,WSW,256,7.0,10.0,45,0.00,,,0.00,Wunderground v.1.15,2014-01-02 18:45:00,
2014-01-02 12:47:00,37.3,17.4,30.35,West,269,10.0,10.0,44,0.00,,---,0.00,VWS V14.01,2014-01-02 18:47:00,
2014-01-02 12:50:00,37.8,17.8,30.35,WNW,282,6.0,6.0,44,0.00,,,0.00,Wunderground v.1.15,2014-01-02 18:50:00,
2014-01-02 12:52:00,37.9,16.9,30.35,West,263,10.0,12.0,42,0.00,,---,0.00,VWS V14.01,2014-01-02 18:52:00,
2014-01-02 12:55:00,38.3,18.3,30.35,WNW,290,7.0,7.0,44,0.00,,,0.00,Wunderground v.1.15,2014-01-02 18:55:00,
2014-01-02 12:58:00,38.6,18.6,30.35,West,260,6.0,12.0,44,0.00,,---,0.00,VWS V14.01,2014-01-02 18:58:00,
2014-01-02 13:00:00,39.2,17.4,30.35,WNW,291,5.0,8.0,41,0.00,,,0.00,Wunderground v.1.15,2014-01-02 19:00:00,
2014-01-02 13:03:00,39.1,17.4,30.35,SW,214,6.0,12.0,41,0.00,,---,0.00,VWS V14.01,2014-01-02 19:03:00,
2014-01-02 13:05:00,39.1,17.4,30.35,WNW,299,5.0,13.0,41,0.00,,,0.00,Wunderground v.1.15,2014-01-02 19:05:00,
2014-01-02 13:08:00,39.1,16.8,30.35,WNW,283,2.0,12.0,40,0.00,,---,0.00,VWS V14.01,2014-01-02 19:08:00,
2014-01-02 13:13:00,39.6,16.7,30.35,WNW,287,5.0,10.0,39,0.00,,---,0.00,VWS V14.01,2014-01-02 19:13:00,
2014-01-02 13:15:00,39.5,17.7,30.35,NW,304,5.0,13.0,41,0.00,,,0.00,Wunderground v.1.15,2014-01-02 19:15:00,
2014-01-02 13:18:00,39.8,16.9,30.35,WSW,255,12.0,12.0,39,0.00,,---,0.00,VWS V14.01,2014-01-02 19:18:00,
2014-01-02 13:20:00,39.8,16.8,30.35,WSW,255,5.0,13.0,39,0.00,,,0.00,Wunderground v.1.15,2014-01-02 19:20:00,
2014-01-02 13:24:00,39.6,16.7,30.35,West,277,8.0,16.0,39,0.00,,---,0.00,VWS V14.01,2014-01-02 19:24:00,
2014-01-02 13:25:00,39.8,16.8,30.35,WSW,256,6.0,13.0,39,0.00,,,0.00,Wunderground v.1.15,2014-01-02 19:25:00,
2014-01-02 13:29:00,40.2,17.8,30.35,WSW,255,3.0,16.0,40,0.00,,---,0.00,VWS V14.01,2014-01-02 19:29:00,
2014-01-02 13:30:00,40.2,17.8,30.35,West,259,6.0,13.0,40,0.00,,,0.00,Wunderground v.1.15,2014-01-02 19:30:00,
2014-01-02 13:34:00,40.3,17.9,30.35,WNW,289,5.0,13.0,40,0.00,,---,0.00,VWS V14.01,2014-01-02 19:34:00,
2014-01-02 13:35:00,40.5,18.0,30.35,West,280,5.0,13.0,40,0.00,,,0.00,Wunderground v.1.15,2014-01-02 19:35:00,
2014-01-02 13:39:00,40.3,16.1,30.35,West,269,10.0,13.0,37,0.00,,---,0.00,VWS V14.01,2014-01-02 19:39:00,
2014-01-02 13:44:00,40.5,16.3,30.35,NW,318,6.0,16.0,37,0.00,,---,0.00,VWS V14.01,2014-01-02 19:44:00,
2014-01-02 13:45:00,40.3,16.1,30.35,WNW,297,8.0,8.0,37,0.00,,,0.00,Wunderground v.1.15,2014-01-02 19:45:00,
2014-01-02 13:49:00,40.6,15.8,30.35,WNW,290,11.0,16.0,36,0.00,,---,0.00,VWS V14.01,2014-01-02 19:49:00,
2014-01-02 13:50:00,40.6,16.3,30.35,West,272,8.0,16.0,37,0.00,,,0.00,Wunderground v.1.15,2014-01-02 19:50:00,
2014-01-02 13:54:00,41.1,17.4,30.35,West,280,7.0,16.0,38,0.00,,---,0.00,VWS V14.01,2014-01-02 19:54:00,
2014-01-02 13:55:00,41.1,17.4,30.35,WNW,293,8.0,16.0,38,0.00,,,0.00,Wunderground v.1.15,2014-01-02 19:55:00,
2014-01-02 13:59:00,41.5,15.9,30.35,NW,315,11.0,16.0,35,0.00,,---,0.00,VWS V14.01,2014-01-02 19:59:00,
2014-01-02 14:00:00,41.5,15.8,30.35,West,260,7.0,7.0,35,0.00,,,0.00,Wunderground v.1.15,2014-01-02 20:00:00,
2014-01-02 14:05:00,41.6,16.6,30.35,West,279,7.0,13.0,36,0.00,,,0.00,Wunderground v.1.15,2014-01-02 20:05:00,
2014-01-02 14:10:00,42.1,16.4,30.35,West,279,6.0,13.0,35,0.00,,,0.00,Wunderground v.1.15,2014-01-02 20:10:00,
2014-01-02 14:15:00,41.8,16.8,30.35,WSW,253,7.0,13.0,36,0.00,,,0.00,Wunderground v.1.15,2014-01-02 20:15:00,
2014-01-02 14:20:00,42.1,15.7,30.35,WNW,303,8.0,17.0,34,0.00,,,0.00,Wunderground v.1.15,2014-01-02 20:20:00,
2014-01-02 14:25:00,42.1,15.7,30.35,WNW,284,8.0,17.0,34,0.00,,,0.00,Wunderground v.1.15,2014-01-02 20:25:00,
2014-01-02 14:30:00,42.1,17.0,30.35,NW,307,6.0,6.0,36,0.00,,,0.00,Wunderground v.1.15,2014-01-02 20:30:00,
2014-01-02 14:31:00,42.1,17.1,30.36,NW,307,3.0,6.0,36,0.00,,---,0.00,VWS V14.01,2014-01-02 20:31:00,
2014-01-02 14:35:00,42.5,16.7,30.35,NNW,338,6.0,13.0,35,0.00,,,0.00,Wunderground v.1.15,2014-01-02 20:35:00,
2014-01-02 14:36:00,42.5,16.8,30.36,West,262,8.0,12.0,35,0.00,,---,0.00,VWS V14.01,2014-01-02 20:36:00,
2014-01-02 14:40:00,42.2,16.5,30.35,West,270,9.0,13.0,35,0.00,,,0.00,Wunderground v.1.15,2014-01-02 20:40:00,
2014-01-02 14:41:00,42.1,16.4,30.36,West,273,7.0,11.0,35,0.00,,---,0.00,VWS V14.01,2014-01-02 20:41:00,
2014-01-02 14:45:00,41.8,16.1,30.35,WNW,299,10.0,13.0,35,0.00,,,0.00,Wunderground v.1.15,2014-01-02 20:45:00,
2014-01-02 14:46:00,41.8,16.2,30.35,WNW,286,5.0,18.0,35,0.00,,---,0.00,VWS V14.01,2014-01-02 20:46:00,
2014-01-02 14:50:00,41.9,16.2,30.35,NW,310,8.0,13.0,35,0.00,,,0.00,Wunderground v.1.15,2014-01-02 20:50:00,
2014-01-02 14:51:00,41.9,16.3,30.36,West,279,6.0,10.0,35,0.00,,---,0.00,VWS V14.01,2014-01-02 20:51:00,
2014-01-02 14:56:00,42.3,16.6,30.36,NW,304,5.0,11.0,35,0.00,,---,0.00,VWS V14.01,2014-01-02 20:56:00,
2014-01-02 15:00:00,42.5,17.4,30.36,WSW,255,6.0,13.0,36,0.00,,,0.00,Wunderground v.1.15,2014-01-02 21:00:00,
2014-01-02 15:01:00,42.5,17.4,30.36,WSW,255,11.0,11.0,36,0.00,,---,0.00,VWS V14.01,2014-01-02 21:01:00,
2014-01-02 15:05:00,42.5,17.4,30.36,West,265,7.0,13.0,36,0.00,,,0.00,Wunderground v.1.15,2014-01-02 21:05:00,
2014-01-02 15:06:00,42.3,17.3,30.36,West,277,8.0,12.0,36,0.00,,---,0.00,VWS V14.01,2014-01-02 21:06:00,
2014-01-02 15:11:00,42.5,16.8,30.36,West,279,10.0,10.0,35,0.00,,---,0.00,VWS V14.01,2014-01-02 21:11:00,
2014-01-02 15:15:00,42.6,17.5,30.36,NW,317,6.0,13.0,36,0.00,,,0.00,Wunderground v.1.15,2014-01-02 21:15:00,
2014-01-02 15:16:00,42.6,17.5,30.36,WNW,289,3.0,11.0,36,0.00,,---,0.00,VWS V14.01,2014-01-02 21:16:00,
2014-01-02 15:20:00,42.8,17.7,30.36,NW,320,5.0,13.0,36,0.00,,,0.00,Wunderground v.1.15,2014-01-02 21:20:00,
2014-01-02 15:21:00,42.9,17.8,30.36,West,275,3.0,7.0,36,0.00,,---,0.00,VWS V14.01,2014-01-02 21:21:00,
2014-01-02 15:25:00,42.8,17.7,30.37,West,266,6.0,13.0,36,0.00,,,0.00,Wunderground v.1.15,2014-01-02 21:25:00,
2014-01-02 15:27:00,42.6,16.9,30.36,WNW,301,7.0,14.0,35,0.00,,---,0.00,VWS V14.01,2014-01-02 21:27:00,
2014-01-02 15:30:00,42.6,16.8,30.37,West,266,7.0,13.0,35,0.00,,,0.00,Wunderground v.1.15,2014-01-02 21:30:00,
2014-01-02 15:32:00,42.6,17.5,30.37,WNW,294,13.0,13.0,36,0.00,,---,0.00,VWS V14.01,2014-01-02 21:32:00,
2014-01-02 15:35:00,42.8,17.0,30.37,WNW,284,7.0,13.0,35,0.00,,,0.00,Wunderground v.1.15,2014-01-02 21:35:00,
2014-01-02 15:38:00,42.8,17.1,30.37,WSW,239,6.0,13.0,35,0.00,,---,0.00,VWS V14.01,2014-01-02 21:38:00,
2014-01-02 15:40:00,42.8,17.0,30.37,West,259,7.0,13.0,35,0.00,,,0.00,Wunderground v.1.15,2014-01-02 21:40:00,
2014-01-02 15:43:00,42.8,17.7,30.37,WNW,297,6.0,11.0,36,0.00,,---,0.00,VWS V14.01,2014-01-02 21:43:00,
2014-01-02 15:45:00,42.6,16.8,30.37,NNW,328,7.0,13.0,35,0.00,,,0.00,Wunderground v.1.15,2014-01-02 21:45:00,
2014-01-02 15:48:00,42.8,17.1,30.37,WNW,299,8.0,13.0,35,0.00,,---,0.00,VWS V14.01,2014-01-02 21:48:00,
2014-01-02 15:50:00,42.8,17.7,30.37,WNW,289,7.0,7.0,36,0.00,,,0.00,Wunderground v.1.15,2014-01-02 21:50:00,
2014-01-02 15:53:00,42.8,17.7,30.37,West,265,3.0,5.0,36,0.00,,---,0.00,VWS V14.01,2014-01-02 21:53:00,
2014-01-02 15:55:00,42.8,17.7,30.37,WNW,299,7.0,13.0,36,0.00,,,0.00,Wunderground v.1.15,2014-01-02 21:55:00,
2014-01-02 15:58:00,42.9,19.1,30.37,WNW,300,1.0,12.0,38,0.00,,---,0.00,VWS V14.01,2014-01-02 21:58:00,
2014-01-02 16:00:00,42.9,19.0,30.37,WNW,300,4.0,13.0,38,0.00,,,0.00,Wunderground v.1.15,2014-01-02 22:00:00,
2014-01-02 16:04:00,43.1,18.0,30.37,West,263,3.0,11.0,36,0.00,,---,0.00,VWS V14.01,2014-01-02 22:04:00,
2014-01-02 16:05:00,42.9,17.7,30.37,West,273,4.0,13.0,36,0.00,,,0.00,Wunderground v.1.15,2014-01-02 22:05:00,
2014-01-02 16:09:00,42.6,17.5,30.37,West,280,6.0,13.0,36,0.00,,---,0.00,VWS V14.01,2014-01-02 22:09:00,
2014-01-02 16:10:00,42.6,17.5,30.38,West,276,5.0,13.0,36,0.00,,,0.00,Wunderground v.1.15,2014-01-02 22:10:00,
2014-01-02 16:14:00,42.3,17.3,30.38,WNW,286,3.0,11.0,36,0.00,,---,0.00,VWS V14.01,2014-01-02 22:14:00,
2014-01-02 16:15:00,42.3,17.2,30.38,WNW,286,5.0,13.0,36,0.00,,,0.00,Wunderground v.1.15,2014-01-02 22:15:00,
2014-01-02 16:20:00,42.2,17.8,30.38,West,277,3.0,3.0,37,0.00,,---,0.00,VWS V14.01,2014-01-02 22:20:00,
2014-01-02 16:25:00,41.9,17.5,30.38,WNW,289,2.0,12.0,37,0.00,,---,0.00,VWS V14.01,2014-01-02 22:25:00,
2014-01-02 16:30:00,41.6,17.8,30.38,WNW,282,5.0,5.0,38,0.00,,,0.00,Wunderground v.1.15,2014-01-02 22:30:00,
2014-01-02 16:35:00,41.5,17.7,30.38,West,270,4.0,12.0,38,0.00,,,0.00,Wunderground v.1.15,2014-01-02 22:35:00,
2014-01-02 16:40:00,41.3,17.6,30.39,WNW,291,4.0,4.0,38,0.00,,,0.00,Wunderground v.1.15,2014-01-02 22:40:00,
2014-01-02 16:41:00,41.2,17.5,30.39,WNW,290,3.0,3.0,38,0.00,,---,0.00,VWS V14.01,2014-01-02 22:41:00,
2014-01-02 16:46:00,41.1,18.6,30.39,WNW,294,8.0,10.0,40,0.00,,---,0.00,VWS V14.01,2014-01-02 22:46:00,
2014-01-02 16:50:00,40.8,17.7,30.39,West,276,5.0,5.0,39,0.00,,,0.00,Wunderground v.1.15,2014-01-02 22:50:00,
2014-01-02 16:51:00,40.8,17.8,30.39,West,267,3.0,5.0,39,0.00,,---,0.00,VWS V14.01,2014-01-02 22:51:00,
2014-01-02 16:55:00,40.5,17.5,30.39,West,262,5.0,13.0,39,0.00,,,0.00,Wunderground v.1.15,2014-01-02 22:55:00,
2014-01-02 16:56:00,40.2,18.4,30.39,WNW,296,3.0,8.0,41,0.00,,---,0.00,VWS V14.01,2014-01-02 22:56:00,
2014-01-02 17:00:00,39.9,18.6,30.39,West,270,4.0,13.0,42,0.00,,,0.00,Wunderground v.1.15,2014-01-02 23:00:00,
2014-01-02 17:01:00,39.9,18.7,30.40,WNW,293,6.0,6.0,42,0.00,,---,0.00,VWS V14.01,2014-01-02 23:01:00,
2014-01-02 17:05:00,39.5,18.3,30.39,WNW,289,4.0,13.0,42,0.00,,,0.00,Wunderground v.1.15,2014-01-02 23:05:00,
2014-01-02 17:06:00,39.2,18.0,30.40,WNW,303,5.0,8.0,42,0.00,,---,0.00,VWS V14.01,2014-01-02 23:06:00,
2014-01-02 17:11:00,38.9,18.3,30.40,West,267,6.0,6.0,43,0.00,,---,0.00,VWS V14.01,2014-01-02 23:11:00,
2014-01-02 17:15:00,38.6,18.5,30.40,West,267,5.0,13.0,44,0.00,,,0.00,Wunderground v.1.15,2014-01-02 23:15:00,
2014-01-02 17:17:00,38.5,18.5,30.40,WNW,282,7.0,7.0,44,0.00,,---,0.00,VWS V14.01,2014-01-02 23:17:00,
2014-01-02 17:20:00,38.3,18.3,30.40,West,265,5.0,5.0,44,0.00,,,0.00,Wunderground v.1.15,2014-01-02 23:20:00,
2014-01-02 17:22:00,38.2,18.2,30.40,WNW,284,2.0,8.0,44,0.00,,---,0.00,VWS V14.01,2014-01-02 23:22:00,
2014-01-02 17:27:00,37.9,18.5,30.40,West,266,2.0,8.0,45,0.00,,---,0.00,VWS V14.01,2014-01-02 23:27:00,
2014-01-02 17:30:00,37.8,18.3,30.40,WNW,283,3.0,13.0,45,0.00,,,0.00,Wunderground v.1.15,2014-01-02 23:30:00,
2014-01-02 17:32:00,37.6,18.2,30.40,WNW,289,2.0,3.0,45,0.00,,---,0.00,VWS V14.01,2014-01-02 23:32:00,
2014-01-02 17:35:00,37.5,18.6,30.40,WNW,290,3.0,13.0,46,0.00,,,0.00,Wunderground v.1.15,2014-01-02 23:35:00,
2014-01-02 17:37:00,37.3,18.9,30.40,WNW,291,3.0,6.0,47,0.00,,---,0.00,VWS V14.01,2014-01-02 23:37:00,
2014-01-02 17:40:00,37.0,18.6,30.40,West,276,2.0,13.0,47,0.00,,,0.00,Wunderground v.1.15,2014-01-02 23:40:00,
2014-01-02 17:42:00,37.0,19.1,30.40,West,276,2.0,2.0,48,0.00,,---,0.00,VWS V14.01,2014-01-02 23:42:00,
2014-01-02 17:45:00,36.6,18.7,30.40,West,276,2.0,13.0,48,0.00,,,0.00,Wunderground v.1.15,2014-01-02 23:45:00,
2014-01-02 17:47:00,36.6,19.3,30.40,West,276,1.0,2.0,49,0.00,,---,0.00,VWS V14.01,2014-01-02 23:47:00,
2014-01-02 17:50:00,36.2,18.9,30.40,West,279,1.0,13.0,49,0.00,,,0.00,Wunderground v.1.15,2014-01-02 23:50:00,
2014-01-02 17:52:00,36.2,18.9,30.40,West,279,1.0,1.0,49,0.00,,---,0.00,VWS V14.01,2014-01-02 23:52:00,
2014-01-02 17:55:00,35.9,18.6,30.40,WNW,289,2.0,13.0,49,0.00,,,0.00,Wunderground v.1.15,2014-01-02 23:55:00,
2014-01-02 17:57:00,35.9,19.1,30.40,WNW,289,1.0,5.0,50,0.00,,---,0.00,VWS V14.01,2014-01-02 23:57:00,
2014-01-02 18:00:00,35.8,19.0,30.40,WNW,289,2.0,2.0,50,0.00,,,0.00,Wunderground v.1.15,2014-01-03 00:00:00,
2014-01-02 18:02:00,35.6,18.8,30.40,WNW,289,1.0,3.0,50,0.00,,---,0.00,VWS V14.01,2014-01-03 00:02:00,
2014-01-02 18:05:00,35.5,18.7,30.40,WNW,289,1.0,2.0,50,0.00,,,0.00,Wunderground v.1.15,2014-01-03 00:05:00,
2014-01-02 18:07:00,35.5,18.7,30.40,WNW,290,3.0,3.0,50,0.00,,---,0.00,VWS V14.01,2014-01-03 00:07:00,
2014-01-02 18:10:00,35.3,18.5,30.41,WNW,290,1.0,1.0,50,0.00,,,0.00,Wunderground v.1.15,2014-01-03 00:10:00,
2014-01-02 18:12:00,35.0,18.7,30.40,WNW,290,1.0,2.0,51,0.00,,---,0.00,VWS V14.01,2014-01-03 00:12:00,
2014-01-02 18:17:00,34.4,18.6,30.41,WNW,290,0.0,2.0,52,0.00,,---,0.00,VWS V14.01,2014-01-03 00:17:00,
2014-01-02 18:20:00,33.8,20.2,30.41,WNW,290,0.0,0.0,57,0.00,,,0.00,Wunderground v.1.15,2014-01-03 00:20:00,
2014-01-02 18:23:00,33.2,19.6,30.41,WNW,290,0.0,0.0,57,0.00,,---,0.00,VWS V14.01,2014-01-03 00:23:00,
2014-01-02 18:25:00,32.7,19.9,30.41,WNW,290,0.0,0.0,59,0.00,,,0.00,Wunderground v.1.15,2014-01-03 00:25:00,
2014-01-02 18:28:00,32.4,19.7,30.41,WNW,290,0.0,0.0,59,0.00,,---,0.00,VWS V14.01,2014-01-03 00:28:00,
2014-01-02 18:30:00,31.8,20.6,30.41,WNW,290,0.0,0.0,63,0.00,,,0.00,Wunderground v.1.15,2014-01-03 00:30:00,
2014-01-02 18:33:00,31.3,20.2,30.41,WNW,290,0.0,0.0,63,0.00,,---,0.00,VWS V14.01,2014-01-03 00:33:00,
2014-01-02 18:35:00,31.0,19.9,30.41,WNW,290,0.0,0.0,63,0.00,,,0.00,Wunderground v.1.15,2014-01-03 00:35:00,
2014-01-02 18:38:00,30.9,19.8,30.41,WNW,290,0.0,0.0,63,0.00,,---,0.00,VWS V14.01,2014-01-03 00:38:00,
2014-01-02 18:43:00,30.9,19.0,30.41,WNW,290,0.0,0.0,61,0.00,,---,0.00,VWS V14.01,2014-01-03 00:43:00,
2014-01-02 18:45:00,31.0,18.7,30.41,WNW,290,0.0,0.0,60,0.00,,,0.00,Wunderground v.1.15,2014-01-03 00:45:00,
2014-01-02 18:48:00,31.5,18.8,30.42,WNW,290,0.0,0.0,59,0.00,,---,0.00,VWS V14.01,2014-01-03 00:48:00,
2014-01-02 18:50:00,31.5,18.8,30.42,WNW,290,0.0,0.0,59,0.00,,,0.00,Wunderground v.1.15,2014-01-03 00:50:00,
2014-01-02 18:53:00,31.8,19.1,30.42,WNW,290,0.0,0.0,59,0.00,,---,0.00,VWS V14.01,2014-01-03 00:53:00,
2014-01-02 18:55:00,31.9,19.2,30.42,WNW,290,0.0,0.0,59,0.00,,,0.00,Wunderground v.1.15,2014-01-03 00:55:00,
2014-01-02 18:58:00,32.1,19.0,30.42,WNW,290,0.0,0.0,58,0.00,,---,0.00,VWS V14.01,2014-01-03 00:58:00,
2014-01-02 19:00:00,32.1,19.0,30.42,WNW,290,0.0,0.0,58,0.00,,,0.00,Wunderground v.1.15,2014-01-03 01:00:00,
2014-01-02 19:04:00,31.9,19.6,30.42,WNW,290,0.0,0.0,60,0.00,,---,0.00,VWS V14.01,2014-01-03 01:04:00,
2014-01-02 19:05:00,31.8,19.5,30.42,WNW,290,0.0,5.0,60,0.00,,,0.00,Wunderground v.1.15,2014-01-03 01:05:00,
2014-01-02 19:09:00,31.3,19.8,30.42,WNW,290,0.0,0.0,62,0.00,,---,0.00,VWS V14.01,2014-01-03 01:09:00,
2014-01-02 19:10:00,31.0,19.5,30.42,WNW,290,0.0,5.0,62,0.00,,,0.00,Wunderground v.1.15,2014-01-03 01:10:00,
2014-01-02 19:14:00,30.4,19.7,30.43,WNW,290,0.0,0.0,64,0.00,,---,0.00,VWS V14.01,2014-01-03 01:14:00,
2014-01-02 19:15:00,30.3,19.6,30.43,WNW,290,0.0,5.0,64,0.00,,,0.00,Wunderground v.1.15,2014-01-03 01:15:00,
2014-01-02 19:19:00,29.8,19.5,30.43,WNW,290,0.0,0.0,65,0.00,,---,0.00,VWS V14.01,2014-01-03 01:19:00,
2014-01-02 19:20:00,29.8,19.5,30.43,WNW,290,0.0,5.0,65,0.00,,,0.00,Wunderground v.1.15,2014-01-03 01:20:00,
2014-01-02 19:24:00,29.4,19.8,30.43,WNW,290,0.0,0.0,67,0.00,,---,0.00,VWS V14.01,2014-01-03 01:24:00,
2014-01-02 19:25:00,29.3,19.7,30.43,WNW,290,0.0,5.0,67,0.00,,,0.00,Wunderground v.1.15,2014-01-03 01:25:00,
2014-01-02 19:29:00,28.8,19.6,30.43,WNW,290,0.0,0.0,68,0.00,,---,0.00,VWS V14.01,2014-01-03 01:29:00,
2014-01-02 19:34:00,28.4,19.5,30.43,WNW,290,0.0,0.0,69,0.00,,---,0.00,VWS V14.01,2014-01-03 01:34:00,
2014-01-02 19:35:00,28.2,19.3,30.43,WNW,290,0.0,5.0,69,0.00,,,0.00,Wunderground v.1.15,2014-01-03 01:35:00,
2014-01-02 19:39:00,27.8,19.3,30.44,WNW,290,0.0,0.0,70,0.00,,---,0.00,VWS V14.01,2014-01-03 01:39:00,
2014-01-02 19:40:00,27.8,19.3,30.44,WNW,290,0.0,5.0,70,0.00,,,0.00,Wunderground v.1.15,2014-01-03 01:40:00,
2014-01-02 19:45:00,27.5,19.4,30.44,WNW,290,0.0,0.0,71,0.00,,---,0.00,VWS V14.01,2014-01-03 01:45:00,
2014-01-02 19:50:00,27.0,19.5,30.44,WNW,290,0.0,0.0,73,0.00,,---,0.00,VWS V14.01,2014-01-03 01:50:00,
2014-01-02 19:55:00,26.6,20.1,30.44,WNW,290,0.0,0.0,76,0.00,,---,0.00,VWS V14.01,2014-01-03 01:55:00,
2014-01-02 20:00:00,26.4,19.9,30.44,WNW,290,0.0,5.0,76,0.00,,,0.00,Wunderground v.1.15,2014-01-03 02:00:00,
2014-01-02 20:05:00,26.1,19.6,30.44,WNW,290,0.0,5.0,76,0.00,,,0.00,Wunderground v.1.15,2014-01-03 02:05:00,
2014-01-02 20:10:00,26.0,18.8,30.44,WNW,290,0.0,5.0,74,0.00,,,0.00,Wunderground v.1.15,2014-01-03 02:10:00,
2014-01-02 20:15:00,25.8,19.0,30.44,WNW,290,0.0,5.0,75,0.00,,,0.00,Wunderground v.1.15,2014-01-03 02:15:00,
2014-01-02 20:20:00,25.7,18.9,30.44,WNW,290,0.0,5.0,75,0.00,,,0.00,Wunderground v.1.15,2014-01-03 02:20:00,
2014-01-02 20:21:00,25.7,18.9,30.44,WNW,290,0.0,0.0,75,0.00,,---,0.00,VWS V14.01,2014-01-03 02:21:00,
2014-01-02 20:25:00,25.6,19.1,30.44,WNW,290,0.0,5.0,76,0.00,,,0.00,Wunderground v.1.15,2014-01-03 02:25:00,
2014-01-02 20:26:00,25.6,19.4,30.44,WNW,290,0.0,0.0,77,0.00,,---,0.00,VWS V14.01,2014-01-03 02:26:00,
2014-01-02 20:30:00,25.4,19.2,30.44,WNW,290,0.0,5.0,77,0.00,,,0.00,Wunderground v.1.15,2014-01-03 02:30:00,
2014-01-02 20:31:00,25.3,19.1,30.44,WNW,290,0.0,0.0,77,0.00,,---,0.00,VWS V14.01,2014-01-03 02:31:00,
2014-01-02 20:35:00,25.1,18.9,30.44,WNW,290,0.0,5.0,77,0.00,,,0.00,Wunderground v.1.15,2014-01-03 02:35:00,
2014-01-02 20:36:00,25.1,18.9,30.44,WNW,290,0.0,0.0,77,0.00,,---,0.00,VWS V14.01,2014-01-03 02:36:00,
2014-01-02 20:41:00,24.8,18.6,30.44,WNW,290,0.0,0.0,77,0.00,,---,0.00,VWS V14.01,2014-01-03 02:41:00,
2014-01-02 20:45:00,24.7,18.8,30.44,WNW,290,0.0,5.0,78,0.00,,,0.00,Wunderground v.1.15,2014-01-03 02:45:00,
2014-01-02 20:46:00,24.5,18.6,30.44,WNW,290,0.0,0.0,78,0.00,,---,0.00,VWS V14.01,2014-01-03 02:46:00,
2014-01-02 20:50:00,24.4,18.8,30.45,WNW,290,0.0,5.0,79,0.00,,,0.00,Wunderground v.1.15,2014-01-03 02:50:00,
2014-01-02 20:51:00,24.4,18.8,30.45,WNW,290,0.0,0.0,79,0.00,,---,0.00,VWS V14.01,2014-01-03 02:51:00,
2014-01-02 20:56:00,24.2,18.6,30.45,WNW,290,0.0,0.0,79,0.00,,---,0.00,VWS V14.01,2014-01-03 02:56:00,
2014-01-02 21:00:00,24.2,18.9,30.45,WNW,290,0.0,5.0,80,0.00,,,0.00,Wunderground v.1.15,2014-01-03 03:00:00,
2014-01-02 21:01:00,24.2,18.9,30.45,WNW,290,0.0,0.0,80,0.00,,---,0.00,VWS V14.01,2014-01-03 03:01:00,
2014-01-02 21:05:00,24.1,18.8,30.45,WNW,290,0.0,5.0,80,0.00,,,0.00,Wunderground v.1.15,2014-01-03 03:05:00,
2014-01-02 21:07:00,24.1,18.8,30.45,WNW,290,0.0,0.0,80,0.00,,---,0.00,VWS V14.01,2014-01-03 03:07:00,
2014-01-02 21:10:00,24.1,18.8,30.45,WNW,290,0.0,5.0,80,0.00,,,0.00,Wunderground v.1.15,2014-01-03 03:10:00,
2014-01-02 21:12:00,24.1,18.8,30.45,WNW,290,0.0,0.0,80,0.00,,---,0.00,VWS V14.01,2014-01-03 03:12:00,
2014-01-02 21:17:00,23.9,18.9,30.45,WNW,290,0.0,0.0,81,0.00,,---,0.00,VWS V14.01,2014-01-03 03:17:00,
2014-01-02 21:20:00,23.9,18.9,30.45,WNW,290,0.0,5.0,81,0.00,,,0.00,Wunderground v.1.15,2014-01-03 03:20:00,
2014-01-02 21:22:00,23.8,18.8,30.45,WNW,290,0.0,0.0,81,0.00,,---,0.00,VWS V14.01,2014-01-03 03:22:00,
2014-01-02 21:25:00,23.6,18.6,30.45,WNW,290,0.0,5.0,81,0.00,,,0.00,Wunderground v.1.15,2014-01-03 03:25:00,
2014-01-02 21:27:00,23.6,18.6,30.45,WNW,290,0.0,0.0,81,0.00,,---,0.00,VWS V14.01,2014-01-03 03:27:00,
2014-01-02 21:30:00,23.5,18.5,30.45,WNW,290,0.0,5.0,81,0.00,,,0.00,Wunderground v.1.15,2014-01-03 03:30:00,
2014-01-02 21:32:00,23.3,18.3,30.45,WNW,290,0.0,0.0,81,0.00,,---,0.00,VWS V14.01,2014-01-03 03:32:00,
2014-01-02 21:35:00,23.3,18.3,30.46,WNW,290,0.0,5.0,81,0.00,,,0.00,Wunderground v.1.15,2014-01-03 03:35:00,
2014-01-02 21:38:00,23.2,18.2,30.46,WNW,290,0.0,0.0,81,0.00,,---,0.00,VWS V14.01,2014-01-03 03:38:00,
2014-01-02 21:40:00,23.2,18.2,30.46,WNW,290,0.0,5.0,81,0.00,,,0.00,Wunderground v.1.15,2014-01-03 03:40:00,
2014-01-02 21:43:00,23.0,18.3,30.46,WNW,290,0.0,0.0,82,0.00,,---,0.00,VWS V14.01,2014-01-03 03:43:00,
2014-01-02 21:45:00,23.0,18.3,30.46,WNW,290,0.0,5.0,82,0.00,,,0.00,Wunderground v.1.15,2014-01-03 03:45:00,
2014-01-02 21:48:00,22.9,18.5,30.46,WNW,290,0.0,0.0,83,0.00,,---,0.00,VWS V14.01,2014-01-03 03:48:00,
2014-01-02 21:50:00,22.9,18.5,30.46,WNW,290,0.0,5.0,83,0.00,,,0.00,Wunderground v.1.15,2014-01-03 03:50:00,
2014-01-02 21:53:00,22.9,18.5,30.46,WNW,290,0.0,0.0,83,0.00,,---,0.00,VWS V14.01,2014-01-03 03:53:00,
2014-01-02 21:55:00,22.9,18.5,30.46,WNW,290,0.0,5.0,83,0.00,,,0.00,Wunderground v.1.15,2014-01-03 03:55:00,
2014-01-02 21:58:00,22.7,18.3,30.47,WNW,290,0.0,0.0,83,0.00,,---,0.00,VWS V14.01,2014-01-03 03:58:00,
2014-01-02 22:00:00,22.7,18.3,30.47,WNW,290,0.0,5.0,83,0.00,,,0.00,Wunderground v.1.15,2014-01-03 04:00:00,
2014-01-02 22:03:00,22.5,18.1,30.46,WNW,290,0.0,0.0,83,0.00,,---,0.00,VWS V14.01,2014-01-03 04:03:00,
2014-01-02 22:05:00,22.5,18.1,30.46,WNW,290,0.0,5.0,83,0.00,,,0.00,Wunderground v.1.15,2014-01-03 04:05:00,
2014-01-02 22:09:00,22.4,18.0,30.46,WNW,290,0.0,0.0,83,0.00,,---,0.00,VWS V14.01,2014-01-03 04:09:00,
2014-01-02 22:10:00,22.4,18.0,30.46,WNW,290,0.0,5.0,83,0.00,,,0.00,Wunderground v.1.15,2014-01-03 04:10:00,
2014-01-02 22:14:00,22.4,18.3,30.46,WNW,290,0.0,0.0,84,0.00,,---,0.00,VWS V14.01,2014-01-03 04:14:00,
2014-01-02 22:15:00,22.4,18.3,30.46,WNW,290,0.0,5.0,84,0.00,,,0.00,Wunderground v.1.15,2014-01-03 04:15:00,
2014-01-02 22:19:00,22.4,18.3,30.46,WNW,290,0.0,0.0,84,0.00,,---,0.00,VWS V14.01,2014-01-03 04:19:00,
2014-01-02 22:20:00,22.4,18.3,30.47,WNW,290,0.0,5.0,84,0.00,,,0.00,Wunderground v.1.15,2014-01-03 04:20:00,
2014-01-02 22:24:00,22.4,18.9,30.47,WNW,290,0.0,0.0,86,0.00,,---,0.00,VWS V14.01,2014-01-03 04:24:00,
2014-01-02 22:25:00,22.4,18.8,30.47,WNW,290,0.0,5.0,86,0.00,,,0.00,Wunderground v.1.15,2014-01-03 04:25:00,
2014-01-02 22:29:00,22.4,18.6,30.47,WNW,290,0.0,0.0,85,0.00,,---,0.00,VWS V14.01,2014-01-03 04:29:00,
2014-01-02 22:30:00,22.4,18.6,30.47,WNW,290,0.0,5.0,85,0.00,,,0.00,Wunderground v.1.15,2014-01-03 04:30:00,
2014-01-02 22:34:00,22.2,18.4,30.47,WNW,290,0.0,0.0,85,0.00,,---,0.00,VWS V14.01,2014-01-03 04:34:00,
2014-01-02 22:35:00,22.2,18.4,30.47,WNW,290,0.0,5.0,85,0.00,,,0.00,Wunderground v.1.15,2014-01-03 04:35:00,
2014-01-02 22:39:00,22.2,18.4,30.46,WNW,290,0.0,0.0,85,0.00,,---,0.00,VWS V14.01,2014-01-03 04:39:00,
2014-01-02 22:40:00,22.2,18.4,30.46,WNW,290,0.0,5.0,85,0.00,,,0.00,Wunderground v.1.15,2014-01-03 04:40:00,
2014-01-02 22:45:00,22.2,18.4,30.46,WNW,290,0.0,5.0,85,0.00,,,0.00,Wunderground v.1.15,2014-01-03 04:45:00,
2014-01-02 22:50:00,22.1,18.3,30.46,WNW,290,0.0,5.0,85,0.00,,,0.00,Wunderground v.1.15,2014-01-03 04:50:00,
2014-01-02 22:55:00,21.9,18.1,30.47,WNW,290,0.0,0.0,85,0.00,,---,0.00,VWS V14.01,2014-01-03 04:55:00,
2014-01-02 23:00:00,21.8,18.0,30.47,WNW,290,0.0,5.0,85,0.00,,,0.00,Wunderground v.1.15,2014-01-03 05:00:00,
2014-01-02 23:01:00,21.8,18.0,30.47,WNW,290,0.0,0.0,85,0.00,,---,0.00,VWS V14.01,2014-01-03 05:01:00,
2014-01-02 23:05:00,21.6,17.8,30.47,WNW,290,0.0,5.0,85,0.00,,,0.00,Wunderground v.1.15,2014-01-03 05:05:00,
2014-01-02 23:06:00,21.6,17.8,30.47,WNW,290,0.0,0.0,85,0.00,,---,0.00,VWS V14.01,2014-01-03 05:06:00,
2014-01-02 23:10:00,21.6,18.1,30.47,WNW,290,0.0,5.0,86,0.00,,,0.00,Wunderground v.1.15,2014-01-03 05:10:00,
2014-01-02 23:12:00,21.6,18.1,30.47,WNW,290,0.0,0.0,86,0.00,,---,0.00,VWS V14.01,2014-01-03 05:12:00,
2014-01-02 23:15:00,21.4,17.9,30.47,WNW,290,0.0,5.0,86,0.00,,,0.00,Wunderground v.1.15,2014-01-03 05:15:00,
2014-01-02 23:17:00,21.3,17.8,30.47,WNW,290,0.0,0.0,86,0.00,,---,0.00,VWS V14.01,2014-01-03 05:17:00,
2014-01-02 23:22:00,21.3,17.8,30.47,WNW,290,0.0,0.0,86,0.00,,---,0.00,VWS V14.01,2014-01-03 05:22:00,
2014-01-02 23:25:00,21.1,17.6,30.47,WNW,290,0.0,5.0,86,0.00,,,0.00,Wunderground v.1.15,2014-01-03 05:25:00,
2014-01-02 23:27:00,21.1,17.6,30.47,WNW,290,0.0,0.0,86,0.00,,---,0.00,VWS V14.01,2014-01-03 05:27:00,
2014-01-02 23:30:00,21.1,17.6,30.47,WNW,290,0.0,5.0,86,0.00,,,0.00,Wunderground v.1.15,2014-01-03 05:30:00,
2014-01-02 23:32:00,21.0,17.5,30.47,WNW,290,0.0,0.0,86,0.00,,---,0.00,VWS V14.01,2014-01-03 05:32:00,
2014-01-02 23:35:00,21.0,17.5,30.47,WNW,290,0.0,5.0,86,0.00,,,0.00,Wunderground v.1.15,2014-01-03 05:35:00,
2014-01-02 23:37:00,21.0,17.5,30.47,WNW,290,0.0,0.0,86,0.00,,---,0.00,VWS V14.01,2014-01-03 05:37:00,
2014-01-02 23:40:00,21.0,17.7,30.47,WNW,290,0.0,5.0,87,0.00,,,0.00,Wunderground v.1.15,2014-01-03 05:40:00,
2014-01-02 23:43:00,21.0,17.8,30.47,WNW,290,0.0,0.0,87,0.00,,---,0.00,VWS V14.01,2014-01-03 05:43:00,
2014-01-02 23:45:00,21.0,17.7,30.47,WNW,290,0.0,5.0,87,0.00,,,0.00,Wunderground v.1.15,2014-01-03 05:45:00,
2014-01-02 23:48:00,21.0,17.8,30.47,WNW,290,0.0,0.0,87,0.00,,---,0.00,VWS V14.01,2014-01-03 05:48:00,
2014-01-02 23:53:00,21.0,17.8,30.47,WNW,290,0.0,0.0,87,0.00,,---,0.00,VWS V14.01,2014-01-03 05:53:00,
2014-01-02 23:55:00,21.0,17.7,30.47,WNW,290,0.0,5.0,87,0.00,,,0.00,Wunderground v.1.15,2014-01-03 05:55:00,
2014-01-02 23:58:00,21.0,18.0,30.46,WNW,290,0.0,0.0,88,0.00,,---,0.00,VWS V14.01,2014-01-03 05:58:00,